createdAt,value
2023-03-14T00:01:18.179Z,5.20
2023-03-14T00:03:11.128Z,4.40
2023-03-14T00:05:07.751Z,5.10
2023-03-14T00:07:00.715Z,5.00
2023-03-14T00:08:55.094Z,5.30
2023-03-14T00:10:48.145Z,5.00
2023-03-14T00:12:42.226Z,5.00
2023-03-14T00:14:35.277Z,5.10
2023-03-14T00:16:28.794Z,4.70
2023-03-14T00:18:21.797Z,4.30
2023-03-14T00:20:14.829Z,4.80
2023-03-14T00:22:08.086Z,5.00
2023-03-14T00:24:01.035Z,5.50
2023-03-14T00:25:53.984Z,4.60
2023-03-14T00:27:47.028Z,5.60
2023-03-14T00:29:40.288Z,5.60
2023-03-14T00:31:33.659Z,4.90
2023-03-14T00:33:27.008Z,4.60
2023-03-14T00:35:19.949Z,4.90
2023-03-14T00:37:13.115Z,4.90
2023-03-14T00:39:06.163Z,5.00
2023-03-14T00:40:59.819Z,4.60
2023-03-14T00:42:52.868Z,4.60
2023-03-14T00:44:46.226Z,4.20
2023-03-14T00:46:40.725Z,5.00
2023-03-14T00:48:34.586Z,5.00
2023-03-14T00:50:27.630Z,4.10
2023-03-14T00:52:20.681Z,3.90
2023-03-14T00:54:13.837Z,5.50
2023-03-14T00:56:10.159Z,4.80
2023-03-14T00:58:03.212Z,4.20
2023-03-14T00:59:56.692Z,4.20
2023-03-14T01:01:49.947Z,5.00
2023-03-14T01:03:43.392Z,4.00
2023-03-14T01:05:36.440Z,3.90
2023-03-14T01:07:29.502Z,3.70
2023-03-14T01:09:22.377Z,3.30
2023-03-14T01:11:21.825Z,3.20
2023-03-14T01:13:14.739Z,3.00
2023-03-14T01:15:08.557Z,2.70
2023-03-14T01:17:02.063Z,2.90
2023-03-14T01:18:55.172Z,2.50
2023-03-14T01:20:48.117Z,2.60
2023-03-14T01:22:42.306Z,2.50
2023-03-14T01:24:35.349Z,2.40
2023-03-14T01:26:31.426Z,3.30
2023-03-14T01:28:24.829Z,3.00
2023-03-14T01:30:17.877Z,2.30
2023-03-14T01:32:10.927Z,2.20
2023-03-14T01:34:04.091Z,1.80
2023-03-14T01:35:57.147Z,2.40
2023-03-14T01:37:50.286Z,2.60
2023-03-14T01:39:48.051Z,2.00
2023-03-14T01:41:41.935Z,1.80
2023-03-14T01:43:35.274Z,1.60
2023-03-14T01:45:59.766Z,1.50
2023-03-14T01:47:53.025Z,2.00
2023-03-14T01:50:04.703Z,2.00
2023-03-14T01:52:02.484Z,1.90
2023-03-14T01:54:04.119Z,1.50
2023-03-14T01:55:58.192Z,2.00
2023-03-14T01:57:56.919Z,2.00
2023-03-14T01:59:57.817Z,1.80
2023-03-14T02:01:53.115Z,1.90
2023-03-14T02:03:55.277Z,1.90
2023-03-14T02:05:50.412Z,1.60
2023-03-14T02:07:51.419Z,1.90
2023-03-14T02:09:49.992Z,1.90
2023-03-14T02:11:50.518Z,1.80
2023-03-14T02:14:02.659Z,2.00
2023-03-14T02:16:13.940Z,2.40
2023-03-14T02:18:08.411Z,2.10
2023-03-14T02:20:22.417Z,2.00
2023-03-14T02:22:21.614Z,2.50
2023-03-14T02:24:44.667Z,2.90
2023-03-14T02:26:45.392Z,3.20
2023-03-14T02:28:38.956Z,3.10
2023-03-14T02:30:33.836Z,3.30
2023-03-14T02:32:28.944Z,3.10
2023-03-14T02:34:21.896Z,3.80
2023-03-14T02:36:16.527Z,3.80
2023-03-14T02:38:32.426Z,3.50
2023-03-14T02:40:26.437Z,3.50
2023-03-14T02:42:20.012Z,4.00
2023-03-14T02:44:13.158Z,3.90
2023-03-14T02:46:07.308Z,4.10
2023-03-14T02:48:06.426Z,3.90
2023-03-14T02:50:22.313Z,4.80
2023-03-14T02:52:15.362Z,4.70
2023-03-14T02:54:09.231Z,4.30
2023-03-14T02:56:02.491Z,3.90
2023-03-14T02:57:55.540Z,4.10
2023-03-14T02:59:48.588Z,4.00
2023-03-14T03:01:45.161Z,4.40
2023-03-14T03:03:38.186Z,4.70
2023-03-14T03:05:31.219Z,4.70
2023-03-14T03:07:24.277Z,4.60
2023-03-14T03:09:17.839Z,4.90
2023-03-14T03:11:10.896Z,4.80
2023-03-14T03:13:04.146Z,5.10
2023-03-14T03:14:57.293Z,5.20
2023-03-14T03:16:50.477Z,5.10
2023-03-14T03:18:43.617Z,5.80
2023-03-14T03:20:36.862Z,5.30
2023-03-14T03:22:30.012Z,5.30
2023-03-14T03:24:23.060Z,5.50
2023-03-14T03:26:16.117Z,5.20
2023-03-14T03:28:09.188Z,4.90
2023-03-14T03:30:06.924Z,5.20
2023-03-14T03:32:00.285Z,5.20
2023-03-14T03:33:53.549Z,6.10
2023-03-14T03:35:49.700Z,5.70
2023-03-14T03:37:46.137Z,5.20
2023-03-14T03:39:39.145Z,6.00
2023-03-14T03:41:33.207Z,5.50
2023-03-14T03:43:26.651Z,5.60
2023-03-14T03:45:19.630Z,5.50
2023-03-14T03:47:17.697Z,5.80
2023-03-14T03:49:10.953Z,6.00
2023-03-14T03:51:04.208Z,6.40
2023-03-14T03:52:57.365Z,6.30
2023-03-14T03:54:50.412Z,6.60
2023-03-14T03:56:43.461Z,6.00
2023-03-14T03:58:36.615Z,6.00
2023-03-14T04:00:29.870Z,5.80
2023-03-14T04:02:22.843Z,5.40
2023-03-14T04:04:17.457Z,5.80
2023-03-14T04:06:13.879Z,5.40
2023-03-14T04:10:02.411Z,6.50
2023-03-14T04:12:02.697Z,6.00
2023-03-14T04:14:05.917Z,6.00
2023-03-14T04:15:59.339Z,6.20
2023-03-14T04:17:59.572Z,6.30
2023-03-14T04:19:54.917Z,6.00
2023-03-14T04:21:50.292Z,6.40
2023-03-14T04:23:44.775Z,7.30
2023-03-14T04:25:37.941Z,7.40
2023-03-14T04:27:32.307Z,8.10
2023-03-14T04:29:26.384Z,7.50
2023-03-14T04:31:21.640Z,7.40
2023-03-14T04:33:18.384Z,7.20
2023-03-14T04:35:18.644Z,7.20
2023-03-14T04:37:11.698Z,6.50
2023-03-14T04:39:08.018Z,6.60
2023-03-14T04:41:04.870Z,7.50
2023-03-14T04:42:59.144Z,7.30
2023-03-14T04:44:52.290Z,8.40
2023-03-14T04:46:47.944Z,8.80
2023-03-14T04:48:41.259Z,9.10
2023-03-14T04:50:35.331Z,9.40
2023-03-14T04:52:28.589Z,8.10
2023-03-14T04:54:22.058Z,7.90
2023-03-14T04:56:18.378Z,6.90
2023-03-14T04:58:11.602Z,7.90
2023-03-14T05:00:08.638Z,8.80
2023-03-14T05:02:14.725Z,101.00
2023-03-14T05:04:27.984Z,302.60
2023-03-14T05:06:41.276Z,336.60
2023-03-14T05:08:40.573Z,338.50
2023-03-14T05:10:57.010Z,383.50
2023-03-14T05:13:18.181Z,187.40
2023-03-14T05:15:29.970Z,169.90
2023-03-14T05:17:34.292Z,89.70
2023-03-14T05:19:50.581Z,48.40
2023-03-14T05:21:58.695Z,29.10
2023-03-14T05:24:05.673Z,18.90
2023-03-14T05:26:18.123Z,19.30
2023-03-14T05:28:20.923Z,13.40
2023-03-14T05:30:34.889Z,11.60
2023-03-14T05:33:00.298Z,10.40
2023-03-14T05:35:16.794Z,10.40
2023-03-14T05:37:28.179Z,108.30
2023-03-14T05:39:42.834Z,62.30
2023-03-14T05:41:59.029Z,39.00
2023-03-14T05:44:30.377Z,20.40
2023-03-14T05:46:41.860Z,14.10
2023-03-14T05:48:53.561Z,11.40
2023-03-14T05:51:05.988Z,27.90
2023-03-14T05:53:16.310Z,39.10
2023-03-14T05:55:21.038Z,40.90
2023-03-14T05:57:20.124Z,22.60
2023-03-14T05:59:23.932Z,17.70
2023-03-14T06:01:27.522Z,11.90
2023-03-14T06:03:34.436Z,13.20
2023-03-14T06:05:27.547Z,14.10
2023-03-14T06:07:24.619Z,11.50
2023-03-14T06:09:20.202Z,12.40
2023-03-14T06:11:13.373Z,52.70
2023-03-14T06:13:07.225Z,39.90
2023-03-14T06:15:00.585Z,133.50
2023-03-14T06:16:55.528Z,58.80
2023-03-14T06:18:50.270Z,23.80
2023-03-14T06:20:47.031Z,14.60
2023-03-14T06:22:45.898Z,46.30
2023-03-14T06:24:39.153Z,19.60
2023-03-14T06:26:32.424Z,16.00
2023-03-14T06:28:26.159Z,10.20
2023-03-14T06:30:19.936Z,7.50
2023-03-14T06:32:13.301Z,7.20
2023-03-14T06:34:06.553Z,6.80
2023-03-14T06:35:59.944Z,7.10
2023-03-14T06:37:53.585Z,8.40
2023-03-14T06:39:46.734Z,7.60
2023-03-14T06:41:49.464Z,7.90
2023-03-14T06:43:43.497Z,6.70
2023-03-14T06:45:37.379Z,6.90
2023-03-14T06:47:31.118Z,7.30
2023-03-14T06:49:24.371Z,6.20
2023-03-14T06:51:19.281Z,6.30
2023-03-14T06:53:12.541Z,6.30
2023-03-14T06:55:08.243Z,7.60
2023-03-14T06:57:01.285Z,11.70
2023-03-14T06:58:54.650Z,8.10
2023-03-14T07:00:49.041Z,6.10
2023-03-14T07:02:46.377Z,6.00
2023-03-14T07:05:00.317Z,5.70
2023-03-14T07:06:53.831Z,5.60
2023-03-14T07:08:48.173Z,6.00
2023-03-14T07:10:42.149Z,5.80
2023-03-14T07:12:35.591Z,10.50
2023-03-14T07:14:29.362Z,8.90
2023-03-14T07:16:22.508Z,7.20
2023-03-14T07:18:15.565Z,6.50
2023-03-14T07:20:10.640Z,7.40
2023-03-14T07:22:04.023Z,8.10
2023-03-14T07:23:58.194Z,12.40
2023-03-14T07:25:52.165Z,13.00
2023-03-14T07:27:46.547Z,9.30
2023-03-14T07:29:39.500Z,8.10
2023-03-14T07:31:32.892Z,8.40
2023-03-14T07:33:26.216Z,9.00
2023-03-14T07:35:19.240Z,9.90
2023-03-14T07:37:12.419Z,9.00
2023-03-14T07:39:08.850Z,8.70
2023-03-14T07:41:09.381Z,18.10
2023-03-14T07:43:07.033Z,19.80
2023-03-14T07:45:09.701Z,13.70
2023-03-14T07:47:02.776Z,19.30
2023-03-14T07:48:55.813Z,20.70
2023-03-14T07:50:53.173Z,29.20
2023-03-14T07:52:46.116Z,18.20
2023-03-14T07:54:39.072Z,15.30
2023-03-14T07:56:32.111Z,16.00
2023-03-14T07:58:25.270Z,17.40
2023-03-14T08:00:18.928Z,16.20
2023-03-14T08:02:13.133Z,13.40
2023-03-14T08:04:06.532Z,14.60
2023-03-14T08:05:59.615Z,13.30
2023-03-14T08:07:52.566Z,10.00
2023-03-14T08:09:45.615Z,8.00
2023-03-14T08:11:38.769Z,6.30
2023-03-14T08:13:31.735Z,7.30
2023-03-14T08:15:25.500Z,8.30
2023-03-14T08:17:18.403Z,7.50
2023-03-14T08:19:11.381Z,6.60
2023-03-14T08:21:04.428Z,5.70
2023-03-14T08:22:58.925Z,7.90
2023-03-14T08:24:51.861Z,5.40
2023-03-14T08:26:44.916Z,6.30
2023-03-14T08:28:37.982Z,15.20
2023-03-14T08:30:31.292Z,24.50
2023-03-14T08:32:24.974Z,12.00
2023-03-14T08:34:18.142Z,8.00
2023-03-14T08:36:11.861Z,9.60
2023-03-14T08:38:05.057Z,14.10
2023-03-14T08:39:58.212Z,9.00
2023-03-14T08:41:51.425Z,6.40
2023-03-14T08:43:44.364Z,4.70
2023-03-14T08:45:37.414Z,8.40
2023-03-14T08:47:30.722Z,6.00
2023-03-14T08:49:23.788Z,5.40
2023-03-14T08:51:16.941Z,7.50
2023-03-14T08:53:10.057Z,12.20
2023-03-14T08:55:03.137Z,14.60
2023-03-14T08:56:56.386Z,15.90
2023-03-14T08:58:49.334Z,15.40
2023-03-14T09:00:42.277Z,17.70
2023-03-14T09:02:35.232Z,7.50
2023-03-14T09:04:28.521Z,7.50
2023-03-14T09:06:21.644Z,4.90
2023-03-14T09:08:14.586Z,7.90
2023-03-14T09:10:08.982Z,7.30
2023-03-14T09:12:02.034Z,4.90
2023-03-14T09:13:55.067Z,5.00
2023-03-14T09:15:52.578Z,5.80
2023-03-14T09:17:45.685Z,3.60
2023-03-14T09:19:38.723Z,3.80
2023-03-14T09:21:32.182Z,3.20
2023-03-14T09:23:25.448Z,3.10
2023-03-14T09:25:18.648Z,3.60
2023-03-14T09:27:11.582Z,3.90
2023-03-14T09:29:04.899Z,8.40
2023-03-14T09:30:57.950Z,8.50
2023-03-14T09:32:51.076Z,13.30
2023-03-14T09:34:44.323Z,20.30
2023-03-14T09:36:39.255Z,17.40
2023-03-14T09:38:34.156Z,11.40
2023-03-14T09:40:34.979Z,8.50
2023-03-14T09:42:28.892Z,8.00
2023-03-14T09:44:28.304Z,7.80
2023-03-14T09:46:22.295Z,6.30
2023-03-14T09:48:30.933Z,8.00
2023-03-14T09:50:25.986Z,6.70
2023-03-14T09:52:27.964Z,7.40
2023-03-14T09:54:42.039Z,12.10
2023-03-14T09:56:36.311Z,13.20
2023-03-14T09:58:30.896Z,7.00
2023-03-14T10:00:27.898Z,19.20
2023-03-14T10:02:26.932Z,20.30
2023-03-14T10:04:26.779Z,23.60
2023-03-14T10:06:27.880Z,9.20
2023-03-14T10:08:20.958Z,14.80
2023-03-14T10:10:19.483Z,27.50
2023-03-14T10:12:13.154Z,20.20
2023-03-14T10:14:09.110Z,19.90
2023-03-14T10:16:05.311Z,12.80
2023-03-14T10:18:01.672Z,9.60
2023-03-14T10:20:00.957Z,11.90
2023-03-14T10:21:55.423Z,10.30
2023-03-14T10:23:49.975Z,10.50
2023-03-14T10:26:01.488Z,8.70
2023-03-14T10:27:54.542Z,7.40
2023-03-14T10:29:59.421Z,5.10
2023-03-14T10:31:55.752Z,6.40
2023-03-14T10:34:04.325Z,5.20
2023-03-14T10:36:27.369Z,5.00
2023-03-14T10:38:20.523Z,4.80
2023-03-14T10:40:14.803Z,5.20
2023-03-14T10:42:33.024Z,4.90
2023-03-14T10:44:26.931Z,7.60
2023-03-14T10:46:21.454Z,5.10
2023-03-14T10:48:36.234Z,6.00
2023-03-14T10:50:32.228Z,6.70
2023-03-14T10:52:46.051Z,7.10
2023-03-14T10:54:41.942Z,9.30
2023-03-14T10:56:37.567Z,9.30
2023-03-14T10:58:34.105Z,5.90
2023-03-14T11:00:27.437Z,5.20
2023-03-14T11:02:32.573Z,6.40
2023-03-14T11:04:55.124Z,8.20
2023-03-14T11:07:07.414Z,16.70
2023-03-14T11:09:12.034Z,7.90
2023-03-14T11:11:31.240Z,5.20
2023-03-14T11:13:36.436Z,6.60
2023-03-14T11:15:36.137Z,5.20
2023-03-14T11:17:45.517Z,4.60
2023-03-14T11:19:52.009Z,6.50
2023-03-14T11:22:07.113Z,10.20
2023-03-14T11:24:34.264Z,36.90
2023-03-14T11:26:37.097Z,23.00
2023-03-14T11:28:39.916Z,13.30
2023-03-14T11:30:56.893Z,6.50
2023-03-14T11:33:10.158Z,5.00
2023-03-14T11:35:15.287Z,5.40
2023-03-14T11:37:21.549Z,5.70
2023-03-14T11:39:19.833Z,13.00
2023-03-14T11:43:23.742Z,14.60
2023-03-14T11:45:36.249Z,8.60
2023-03-14T11:47:42.917Z,8.40
2023-03-14T11:49:45.245Z,15.40
2023-03-14T11:51:42.845Z,7.90
2023-03-14T11:53:49.736Z,6.80
2023-03-14T11:55:44.422Z,20.50
2023-03-14T11:57:39.104Z,12.90
2023-03-14T11:59:46.996Z,7.30
2023-03-14T12:02:24.752Z,6.80
2023-03-14T12:04:50.199Z,9.30
2023-03-14T12:06:51.543Z,5.90
2023-03-14T12:08:48.983Z,5.70
2023-03-14T12:10:52.395Z,6.40
2023-03-14T12:12:46.173Z,5.10
2023-03-14T12:14:47.454Z,4.60
2023-03-14T12:16:41.523Z,11.70
2023-03-14T12:18:40.146Z,5.00
2023-03-14T12:20:40.216Z,6.80
2023-03-14T12:22:44.083Z,5.60
2023-03-14T12:24:39.282Z,5.00
2023-03-14T12:26:50.351Z,4.30
2023-03-14T12:28:49.910Z,4.80
2023-03-14T12:30:43.418Z,5.90
2023-03-14T12:32:36.517Z,6.70
2023-03-14T12:34:33.087Z,7.80
2023-03-14T12:37:00.453Z,8.00
2023-03-14T12:39:02.524Z,7.10
2023-03-14T12:41:14.525Z,12.00
2023-03-14T12:43:30.189Z,8.80
2023-03-14T12:45:28.259Z,10.20
2023-03-14T12:47:23.153Z,10.10
2023-03-14T12:49:16.205Z,8.20
2023-03-14T12:51:21.244Z,6.20
2023-03-14T12:53:44.939Z,11.30
2023-03-14T12:55:46.863Z,17.10
2023-03-14T12:58:04.695Z,5.20
2023-03-14T13:00:01.888Z,4.50
2023-03-14T13:02:09.638Z,5.60
2023-03-14T13:04:11.233Z,5.60
2023-03-14T13:06:05.690Z,18.80
2023-03-14T13:08:00.358Z,29.90
2023-03-14T13:10:01.400Z,22.80
2023-03-14T13:11:55.377Z,12.80
2023-03-14T13:13:53.131Z,10.90
2023-03-14T13:15:50.958Z,18.30
2023-03-14T13:17:45.451Z,8.60
2023-03-14T13:19:39.759Z,5.60
2023-03-14T13:21:38.057Z,7.00
2023-03-14T13:23:34.570Z,17.30
2023-03-14T13:25:33.554Z,9.80
2023-03-14T13:27:26.911Z,12.10
2023-03-14T13:29:34.205Z,13.60
2023-03-14T13:31:27.655Z,17.00
2023-03-14T13:33:23.313Z,7.80
2023-03-14T13:35:40.847Z,3.70
2023-03-14T13:37:40.864Z,7.30
2023-03-14T13:39:34.113Z,3.90
2023-03-14T13:41:27.417Z,4.00
2023-03-14T13:43:26.554Z,3.50
2023-03-14T13:45:20.600Z,6.40
2023-03-14T13:47:19.387Z,4.50
2023-03-14T13:49:22.248Z,5.90
2023-03-14T13:51:18.940Z,12.50
2023-03-14T13:53:13.061Z,13.20
2023-03-14T13:55:07.843Z,7.80
2023-03-14T13:57:02.746Z,5.90
2023-03-14T13:58:56.311Z,5.00
2023-03-14T14:00:59.419Z,8.10
2023-03-14T14:02:52.768Z,5.30
2023-03-14T14:04:47.289Z,7.80
2023-03-14T14:06:49.394Z,5.70
2023-03-14T14:08:43.799Z,6.30
2023-03-14T14:10:38.472Z,10.80
2023-03-14T14:12:38.155Z,9.10
2023-03-14T14:14:41.513Z,10.90
2023-03-14T14:16:34.933Z,4.40
2023-03-14T14:18:29.728Z,4.60
2023-03-14T14:20:37.923Z,3.60
2023-03-14T14:24:29.355Z,3.70
2023-03-14T14:28:24.277Z,4.20
2023-03-14T14:30:20.416Z,4.50
2023-03-14T14:32:15.952Z,6.90
2023-03-14T14:34:20.856Z,5.50
2023-03-14T14:36:19.515Z,6.60
2023-03-14T14:38:18.664Z,3.80
2023-03-14T14:40:20.987Z,4.10
2023-03-14T14:42:23.810Z,9.90
2023-03-14T14:44:23.450Z,10.40
2023-03-14T14:48:38.753Z,4.70
2023-03-14T14:50:52.336Z,4.80
2023-03-14T14:52:47.372Z,9.60
2023-03-14T14:54:47.586Z,6.80
2023-03-14T14:56:41.367Z,10.20
2023-03-14T14:58:40.163Z,10.80
2023-03-14T15:00:33.190Z,6.80
2023-03-14T15:02:36.846Z,7.30
2023-03-14T15:04:33.213Z,20.20
2023-03-14T15:06:29.914Z,14.90
2023-03-14T15:08:25.170Z,25.00
2023-03-14T15:10:21.148Z,19.50
2023-03-14T15:12:14.641Z,30.40
2023-03-14T15:14:08.228Z,15.70
2023-03-14T15:16:02.205Z,12.30
2023-03-14T15:17:55.667Z,16.50
2023-03-14T15:19:48.887Z,11.50
2023-03-14T15:21:42.040Z,6.10
2023-03-14T15:23:35.090Z,9.60
2023-03-14T15:25:51.385Z,6.90
2023-03-14T15:27:43.762Z,6.60
2023-03-14T15:29:38.420Z,31.30
2023-03-14T15:31:31.422Z,16.60
2023-03-14T15:33:26.348Z,14.50
2023-03-14T15:35:19.312Z,14.40
2023-03-14T15:37:17.300Z,11.70
2023-03-14T15:39:11.338Z,9.40
2023-03-14T15:41:04.697Z,9.90
2023-03-14T15:42:57.978Z,10.00
2023-03-14T15:44:51.016Z,10.50
2023-03-14T15:46:44.054Z,11.40
2023-03-14T15:48:37.113Z,7.40
2023-03-14T15:50:30.287Z,9.80
2023-03-14T15:52:23.309Z,8.40
2023-03-14T15:54:16.359Z,10.10
2023-03-14T15:56:13.663Z,22.20
2023-03-14T15:58:07.069Z,8.60
2023-03-14T16:00:00.149Z,9.70
2023-03-14T16:01:53.380Z,12.50
2023-03-14T16:03:46.733Z,19.50
2023-03-14T16:05:40.905Z,11.60
2023-03-14T16:07:34.399Z,14.40
2023-03-14T16:09:28.138Z,10.70
2023-03-14T16:11:22.981Z,10.50
2023-03-14T16:13:17.843Z,12.10
2023-03-14T16:15:11.684Z,9.40
2023-03-14T16:17:11.803Z,9.10
2023-03-14T16:19:09.775Z,9.20
2023-03-14T16:21:16.135Z,9.20
2023-03-14T16:23:11.868Z,13.60
2023-03-14T16:25:08.742Z,10.80
2023-03-14T16:27:02.040Z,36.60
2023-03-14T16:29:12.310Z,21.90
2023-03-14T16:31:11.153Z,17.60
2023-03-14T16:33:12.037Z,20.50
2023-03-14T16:35:07.318Z,14.70
2023-03-14T16:37:00.437Z,14.70
2023-03-14T16:38:53.726Z,12.80
2023-03-14T16:41:03.520Z,10.00
2023-03-14T16:43:14.929Z,10.70
2023-03-14T16:45:11.345Z,10.20
2023-03-14T16:47:08.496Z,8.80
2023-03-14T16:49:05.262Z,9.70
2023-03-14T16:53:12.487Z,9.10
2023-03-14T16:55:08.280Z,11.50
2023-03-14T16:57:03.967Z,13.30
2023-03-14T16:59:04.962Z,10.50
2023-03-14T17:01:37.619Z,13.30
2023-03-14T17:04:56.214Z,14.40
2023-03-14T17:06:56.595Z,13.20
2023-03-14T17:09:00.836Z,16.50
2023-03-14T17:11:42.256Z,19.30
2023-03-14T17:13:37.282Z,20.20
2023-03-14T17:15:30.459Z,23.00
2023-03-14T17:17:23.592Z,24.20
2023-03-14T17:19:16.838Z,23.90
2023-03-14T17:21:10.294Z,20.20
2023-03-14T17:23:03.345Z,23.90
2023-03-14T17:24:56.601Z,21.10
2023-03-14T17:29:13.551Z,20.90
2023-03-14T17:31:10.133Z,12.30
2023-03-14T17:33:03.772Z,13.80
2023-03-14T17:34:57.081Z,14.00
2023-03-14T17:36:52.366Z,10.50
2023-03-14T17:38:47.748Z,13.70
2023-03-14T17:40:46.755Z,8.10
2023-03-14T17:42:40.241Z,14.60
2023-03-14T17:44:34.009Z,6.90
2023-03-14T17:46:27.581Z,6.40
2023-03-14T17:48:21.918Z,20.30
2023-03-14T17:50:16.473Z,16.50
2023-03-14T17:52:13.405Z,12.50
2023-03-14T17:54:07.072Z,25.20
2023-03-14T17:56:01.144Z,16.60
2023-03-14T17:57:54.342Z,15.00
2023-03-14T17:59:47.732Z,15.00
2023-03-14T18:01:41.919Z,13.20
2023-03-14T18:03:35.549Z,17.00
2023-03-14T18:05:28.833Z,13.40
2023-03-14T18:07:23.320Z,11.00
2023-03-14T18:09:17.096Z,11.20
2023-03-14T18:11:11.779Z,8.40
2023-03-14T18:13:05.029Z,8.50
2023-03-14T18:14:58.080Z,8.10
2023-03-14T18:16:53.797Z,7.60
2023-03-14T18:18:49.608Z,7.60
2023-03-14T18:20:48.906Z,14.40
2023-03-14T18:22:42.940Z,21.80
2023-03-14T18:24:36.132Z,17.90
2023-03-14T18:26:29.526Z,12.10
2023-03-14T18:28:23.377Z,12.40
2023-03-14T18:30:17.137Z,11.40
2023-03-14T18:32:11.101Z,11.60
2023-03-14T18:34:04.253Z,11.40
2023-03-14T18:36:05.525Z,10.40
2023-03-14T18:37:58.551Z,11.10
2023-03-14T18:39:53.427Z,10.40
2023-03-14T18:41:48.343Z,10.30
2023-03-14T18:43:43.209Z,7.50
2023-03-14T18:45:38.280Z,7.60
2023-03-14T18:47:35.861Z,7.30
2023-03-14T18:49:29.143Z,8.50
2023-03-14T18:51:26.220Z,8.50
2023-03-14T18:53:21.885Z,10.40
2023-03-14T18:55:15.146Z,9.00
2023-03-14T18:57:08.235Z,8.30
2023-03-14T18:59:01.562Z,6.50
2023-03-14T19:00:59.515Z,6.00
2023-03-14T19:02:52.942Z,5.80
2023-03-14T19:04:46.890Z,6.00
2023-03-14T19:06:41.697Z,6.50
2023-03-14T19:08:36.654Z,7.50
2023-03-14T19:10:30.204Z,7.30
2023-03-14T19:12:23.663Z,9.20
2023-03-14T19:14:20.278Z,9.40
2023-03-14T19:16:16.433Z,12.90
2023-03-14T19:18:13.418Z,12.50
2023-03-14T19:20:11.185Z,10.70
2023-03-14T19:22:04.275Z,9.40
2023-03-14T19:23:57.444Z,10.50
2023-03-14T19:25:52.219Z,11.50
2023-03-14T19:27:45.160Z,11.90
2023-03-14T19:29:43.330Z,11.20
2023-03-14T19:31:36.772Z,10.40
2023-03-14T19:33:34.908Z,8.60
2023-03-14T19:35:29.669Z,10.30
2023-03-14T19:37:23.011Z,10.70
2023-03-14T19:39:16.988Z,9.30
2023-03-14T19:41:11.042Z,7.50
2023-03-14T19:43:07.517Z,6.60
2023-03-14T19:45:07.111Z,6.20
2023-03-14T19:47:12.708Z,4.20
2023-03-14T19:49:08.552Z,3.20
2023-03-14T19:51:06.141Z,3.00
2023-03-14T19:53:05.801Z,2.50
2023-03-14T19:58:15.659Z,2.90
2023-03-14T20:00:56.699Z,2.90
2023-03-14T20:03:15.601Z,2.60
2023-03-14T20:05:14.613Z,3.90
2023-03-14T20:07:07.635Z,2.90
2023-03-14T20:09:04.497Z,3.50
2023-03-14T20:10:58.052Z,3.30
2023-03-14T20:12:51.588Z,4.00
2023-03-14T20:14:45.046Z,4.00
2023-03-14T20:16:38.207Z,2.50
2023-03-14T20:18:32.690Z,2.90
2023-03-14T20:20:28.192Z,5.90
2023-03-14T20:22:21.790Z,5.60
2023-03-14T20:24:15.564Z,3.40
2023-03-14T20:26:08.704Z,4.70
2023-03-14T20:28:02.703Z,9.30
2023-03-14T20:29:59.932Z,11.40
2023-03-14T20:31:54.444Z,20.40
2023-03-14T20:33:51.516Z,16.30
2023-03-14T20:35:46.344Z,15.90
2023-03-14T20:37:42.649Z,18.30
2023-03-14T20:39:37.073Z,11.50
2023-03-14T20:41:33.014Z,6.80
2023-03-14T20:43:28.493Z,5.30
2023-03-14T20:45:22.567Z,4.90
2023-03-14T20:47:15.625Z,4.50
2023-03-14T20:49:08.668Z,4.20
2023-03-14T20:51:05.322Z,5.80
2023-03-14T20:52:59.405Z,8.00
2023-03-14T20:54:52.441Z,10.10
2023-03-14T20:56:46.410Z,7.60
2023-03-14T20:58:41.495Z,10.30
2023-03-14T21:00:35.877Z,8.30
2023-03-14T21:02:39.380Z,8.70
2023-03-14T21:04:32.992Z,6.80
2023-03-14T21:06:26.709Z,7.50
2023-03-14T21:08:25.446Z,8.30
2023-03-14T21:10:19.263Z,8.90
2023-03-14T21:12:13.644Z,8.40
2023-03-14T21:14:07.548Z,8.50
2023-03-14T21:16:01.874Z,7.90
2023-03-14T21:17:55.983Z,7.90
2023-03-14T21:19:49.023Z,6.90
2023-03-14T21:21:42.082Z,5.90
2023-03-14T21:23:35.225Z,4.40
2023-03-14T21:25:32.174Z,4.80
2023-03-14T21:27:25.318Z,3.70
2023-03-14T21:31:12.084Z,5.00
2023-03-14T21:33:05.904Z,5.70
2023-03-14T21:34:59.148Z,4.60
2023-03-14T21:36:56.005Z,5.40
2023-03-14T21:38:49.148Z,5.30
2023-03-14T21:40:42.201Z,5.20
2023-03-14T21:42:35.669Z,4.90
2023-03-14T21:44:28.711Z,4.70
2023-03-14T21:46:21.931Z,4.50
2023-03-14T21:48:15.224Z,3.90
2023-03-14T21:50:21.583Z,3.80
2023-03-14T21:52:21.428Z,4.00
2023-03-14T21:54:16.292Z,4.00
2023-03-14T21:56:16.518Z,4.00
2023-03-14T21:58:24.331Z,3.50
2023-03-14T22:00:20.542Z,4.00
2023-03-14T22:02:17.239Z,3.50
2023-03-14T22:04:10.794Z,3.50
2023-03-14T22:06:04.404Z,3.80
2023-03-14T22:07:57.845Z,4.10
2023-03-14T22:09:50.908Z,3.40
2023-03-14T22:15:23.290Z,3.90
2023-03-14T22:17:21.399Z,4.70
2023-03-14T22:19:16.555Z,4.80
2023-03-14T22:21:09.824Z,5.30
2023-03-14T22:23:03.709Z,6.00
2023-03-14T22:24:56.847Z,5.60
2023-03-14T22:26:54.827Z,6.20
2023-03-14T22:28:48.060Z,6.50
2023-03-14T22:30:41.693Z,6.90
2023-03-14T22:32:35.123Z,6.60
2023-03-14T22:34:31.821Z,6.60
2023-03-14T22:36:25.175Z,7.60
2023-03-14T22:38:18.840Z,7.70
2023-03-14T22:40:13.747Z,7.20
2023-03-14T22:42:07.188Z,6.40
2023-03-14T22:44:01.011Z,8.20
2023-03-14T22:46:02.349Z,8.60
2023-03-14T22:47:55.657Z,8.30
2023-03-14T22:49:48.768Z,9.90
2023-03-14T22:51:42.170Z,9.20
2023-03-14T22:53:35.739Z,9.40
2023-03-14T22:55:29.006Z,8.40
2023-03-14T22:57:22.345Z,8.90
2023-03-14T22:59:15.601Z,7.80
2023-03-14T23:01:08.790Z,8.30
2023-03-14T23:03:02.254Z,7.40
2023-03-14T23:04:56.293Z,7.90
2023-03-14T23:06:49.542Z,7.90
2023-03-14T23:08:43.274Z,8.10
2023-03-14T23:10:37.081Z,8.10
2023-03-14T23:12:30.227Z,6.90
2023-03-14T23:14:23.793Z,7.50
2023-03-14T23:16:17.244Z,7.60
2023-03-14T23:18:13.772Z,7.00
2023-03-14T23:20:07.434Z,6.80
2023-03-14T23:22:00.713Z,7.30
2023-03-14T23:23:54.377Z,7.50
2023-03-14T23:25:53.446Z,6.90
2023-03-14T23:27:47.037Z,7.80
2023-03-14T23:29:40.186Z,6.70
2023-03-14T23:31:34.299Z,7.70
2023-03-14T23:33:29.596Z,7.00
2023-03-14T23:35:22.720Z,7.00
2023-03-14T23:37:15.873Z,6.40
2023-03-14T23:39:09.440Z,6.50
2023-03-14T23:41:03.222Z,6.10
2023-03-14T23:42:56.459Z,6.00
2023-03-14T23:44:50.236Z,6.10
2023-03-14T23:46:43.381Z,5.30
2023-03-14T23:48:36.942Z,5.20
2023-03-14T23:50:30.092Z,5.60
2023-03-14T23:52:23.251Z,5.10
2023-03-14T23:54:16.500Z,5.70
2023-03-14T23:56:12.742Z,6.60
2023-03-14T23:58:07.741Z,7.20
